Polar Express — WDF4346 — position and weather

sailwx.info

Track history (hours):
 
Tides and Currents Weather Stations Pressure Air Temp Water Temp Dewpoint Dewpoint Depression Visibility Wind Speed Wind Dir Waves Ship Positions

Polar Express

Owner: Bennett, Richard G, Hayden Lake, ID. More information available from US FCC via Universal Licensing System and Coast Guard Vessel Documentation Center.

Last reported at 2016-Sep-28 16:33 UTC. Time now 2016-Sep-28 18:48 UTC.
Position N 47°38' W 122°20'.

Length 30 m.

Type: Pleasure craft. MMSI: 367450780.

Date/timePositionNaut miles runAvg speedWind from/ knotsBaromVisibWave heightAir tempDewpointWater temp
2016-Sep-28 16:33N 47°38' W 122°20'0 0.0
2016-Sep-28 15:31N 47°38' W 122°20'0 0.0
2016-Sep-28 12:25N 47°38' W 122°20'0 0.0
2016-Sep-28 08:33N 47°38' W 122°20'0 0.0
2016-Sep-28 03:30N 47°38' W 122°20'0 0.0
2016-Sep-28 02:25N 47°38' W 122°20'0 0.0
2016-Sep-28 01:33N 47°38' W 122°20'0 0.0
2016-Sep-27 23:33N 47°38' W 122°20'0 0.0
2016-Sep-27 19:33N 47°38' W 122°20'0 0.0
2016-Sep-27 00:31N 47°38' W 122°20'0 0.0
2016-Sep-26 20:31N 47°38' W 122°20'0 0.0
2016-Sep-26 19:19N 47°38' W 122°20'0 0.0
2016-Sep-26 13:13N 47°38' W 122°20'0 0.0
2016-Sep-26 11:31N 47°38' W 122°20'0 0.0
2016-Sep-26 08:28N 47°38' W 122°20'0 0.0
2016-Sep-26 02:31N 47°38' W 122°20'0 0.0
2016-Sep-26 01:31N 47°38' W 122°20'0 0.0
2016-Sep-26 00:31N 47°38' W 122°20'0 0.0
2016-Sep-25 21:25N 47°38' W 122°20'0 0.0
2016-Sep-25 17:20N 47°38' W 122°20'0 0.0
2016-Sep-25 16:32N 47°38' W 122°20'0 0.0
2016-Sep-25 15:31N 47°38' W 122°20'0 0.0
2016-Sep-25 14:31N 47°38' W 122°20'0 0.0
2016-Sep-25 12:25N 47°38' W 122°20'0 0.0
2016-Sep-25 11:31N 47°38' W 122°20'0 0.0
2016-Sep-25 10:25N 47°38' W 122°20'0 0.0
2016-Sep-25 09:19N 47°38' W 122°20'0 0.0
2016-Sep-25 07:32N 47°38' W 122°20'0 0.0
2016-Sep-25 04:14N 47°38' W 122°20'1 0.1
2016-Sep-24 21:22N 47°39' W 122°20'1 0.3
2016-Sep-24 18:27N 47°38' W 122°20'0 0.0
2016-Sep-24 14:21N 47°38' W 122°20'0 0.0
2016-Sep-24 10:29N 47°38' W 122°20'0 0.0
2016-Sep-24 09:26N 47°38' W 122°20'0 0.0
2016-Sep-24 03:29N 47°38' W 122°20'0 0.0
2016-Sep-24 02:29N 47°38' W 122°20'0 0.0
2016-Sep-24 01:27N 47°38' W 122°20'0 0.0
2016-Sep-23 15:05N 47°38' W 122°20'0 0.0
2016-Sep-23 13:33N 47°38' W 122°20'0 0.0
2016-Sep-23 09:30N 47°38' W 122°20'0 0.0
2016-Sep-23 06:30N 47°38' W 122°20'0 0.0
2016-Sep-23 04:30N 47°38' W 122°20'0 0.0
2016-Sep-23 01:29N 47°38' W 122°20'0 0.0
2016-Sep-23 00:29N 47°38' W 122°20'0 0.0
2016-Sep-22 23:30N 47°38' W 122°20'0 0.0
2016-Sep-22 20:29N 47°38' W 122°20'0 0.0
2016-Sep-22 12:12N 47°38' W 122°20'0 0.0
2016-Sep-22 04:32N 47°38' W 122°20'0 0.2
2016-Sep-22 03:31N 47°38' W 122°20'0 0.0
2016-Sep-22 00:31N 47°38' W 122°20'0 0.2
2016-Sep-21 23:29N 47°38' W 122°20'0 0.0
2016-Sep-21 22:33N 47°38' W 122°20'0 0.0
2016-Sep-21 19:33N 47°38' W 122°20'0 0.0
2016-Sep-21 16:30N 47°38' W 122°20'0 0.0
2016-Sep-21 09:32N 47°38' W 122°20'0 0.0
2016-Sep-21 08:32N 47°38' W 122°20'0 0.0
2016-Sep-21 03:33N 47°38' W 122°20'1 1.5
2016-Sep-21 02:33N 47°39' W 122°20'1 0.1
2016-Sep-20 17:31N 47°38' W 122°20'0 0.0
2016-Sep-20 14:28N 47°38' W 122°20'0 0.0
2016-Sep-20 13:32N 47°38' W 122°20'0 0.0
2016-Sep-20 10:31N 47°38' W 122°20'0 0.0
2016-Sep-20 08:31N 47°38' W 122°20'0 0.0
2016-Sep-20 07:31N 47°38' W 122°20'0 0.0
2016-Sep-20 06:28N 47°38' W 122°20'0 0.0
2016-Sep-20 02:30N 47°38' W 122°20'3 0.9
2016-Sep-19 23:34N 47°40' W 122°23'5 1.3
2016-Sep-19 19:33N 47°35' W 122°27'10 9.9
2016-Sep-19 18:33N 47°26' W 122°32'  
Track history (hours):
 
Tides and Currents Weather Stations Pressure Air Temp Water Temp Dewpoint Dewpoint Depression Visibility Wind Speed Wind Dir Waves Ship Positions

Polar Express

Owner: Bennett, Richard G, Hayden Lake, ID. More information available from US FCC via Universal Licensing System and Coast Guard Vessel Documentation Center.

Last reported at 2016-Sep-28 16:33 UTC. Time now 2016-Sep-28 18:48 UTC.
Position N 47°38' W 122°20'.

Length 30 m.

Type: Pleasure craft. MMSI: 367450780.

Date/timePositionNaut miles runAvg speedWind from/ knotsBaromVisibWave heightAir tempDewpointWater temp
2016-Sep-28 16:33N 47°38' W 122°20'0 0.0
2016-Sep-28 15:31N 47°38' W 122°20'0 0.0
2016-Sep-28 12:25N 47°38' W 122°20'0 0.0
2016-Sep-28 08:33N 47°38' W 122°20'0 0.0
2016-Sep-28 03:30N 47°38' W 122°20'0 0.0
2016-Sep-28 02:25N 47°38' W 122°20'0 0.0
2016-Sep-28 01:33N 47°38' W 122°20'0 0.0
2016-Sep-27 23:33N 47°38' W 122°20'0 0.0
2016-Sep-27 19:33N 47°38' W 122°20'0 0.0
2016-Sep-27 00:31N 47°38' W 122°20'0 0.0
2016-Sep-26 20:31N 47°38' W 122°20'0 0.0
2016-Sep-26 19:19N 47°38' W 122°20'0 0.0
2016-Sep-26 13:13N 47°38' W 122°20'0 0.0
2016-Sep-26 11:31N 47°38' W 122°20'0 0.0
2016-Sep-26 08:28N 47°38' W 122°20'0 0.0
2016-Sep-26 02:31N 47°38' W 122°20'0 0.0
2016-Sep-26 01:31N 47°38' W 122°20'0 0.0
2016-Sep-26 00:31N 47°38' W 122°20'0 0.0
2016-Sep-25 21:25N 47°38' W 122°20'0 0.0
2016-Sep-25 17:20N 47°38' W 122°20'0 0.0
2016-Sep-25 16:32N 47°38' W 122°20'0 0.0
2016-Sep-25 15:31N 47°38' W 122°20'0 0.0
2016-Sep-25 14:31N 47°38' W 122°20'0 0.0
2016-Sep-25 12:25N 47°38' W 122°20'0 0.0
2016-Sep-25 11:31N 47°38' W 122°20'0 0.0
2016-Sep-25 10:25N 47°38' W 122°20'0 0.0
2016-Sep-25 09:19N 47°38' W 122°20'0 0.0
2016-Sep-25 07:32N 47°38' W 122°20'0 0.0
2016-Sep-25 04:14N 47°38' W 122°20'1 0.1
2016-Sep-24 21:22N 47°39' W 122°20'1 0.3
2016-Sep-24 18:27N 47°38' W 122°20'0 0.0
2016-Sep-24 14:21N 47°38' W 122°20'0 0.0
2016-Sep-24 10:29N 47°38' W 122°20'0 0.0
2016-Sep-24 09:26N 47°38' W 122°20'0 0.0
2016-Sep-24 03:29N 47°38' W 122°20'0 0.0
2016-Sep-24 02:29N 47°38' W 122°20'0 0.0
2016-Sep-24 01:27N 47°38' W 122°20'0 0.0
2016-Sep-23 15:05N 47°38' W 122°20'0 0.0
2016-Sep-23 13:33N 47°38' W 122°20'0 0.0
2016-Sep-23 09:30N 47°38' W 122°20'0 0.0
2016-Sep-23 06:30N 47°38' W 122°20'0 0.0
2016-Sep-23 04:30N 47°38' W 122°20'0 0.0
2016-Sep-23 01:29N 47°38' W 122°20'0 0.0
2016-Sep-23 00:29N 47°38' W 122°20'0 0.0
2016-Sep-22 23:30N 47°38' W 122°20'0 0.0
2016-Sep-22 20:29N 47°38' W 122°20'0 0.0
2016-Sep-22 12:12N 47°38' W 122°20'0 0.0
2016-Sep-22 04:32N 47°38' W 122°20'0 0.2
2016-Sep-22 03:31N 47°38' W 122°20'0 0.0
2016-Sep-22 00:31N 47°38' W 122°20'0 0.2
2016-Sep-21 23:29N 47°38' W 122°20'0 0.0
2016-Sep-21 22:33N 47°38' W 122°20'0 0.0
2016-Sep-21 19:33N 47°38' W 122°20'0 0.0
2016-Sep-21 16:30N 47°38' W 122°20'0 0.0
2016-Sep-21 09:32N 47°38' W 122°20'0 0.0
2016-Sep-21 08:32N 47°38' W 122°20'0 0.0
2016-Sep-21 03:33N 47°38' W 122°20'1 1.5
2016-Sep-21 02:33N 47°39' W 122°20'1 0.1
2016-Sep-20 17:31N 47°38' W 122°20'0 0.0
2016-Sep-20 14:28N 47°38' W 122°20'0 0.0
2016-Sep-20 13:32N 47°38' W 122°20'0 0.0
2016-Sep-20 10:31N 47°38' W 122°20'0 0.0
2016-Sep-20 08:31N 47°38' W 122°20'0 0.0
2016-Sep-20 07:31N 47°38' W 122°20'0 0.0
2016-Sep-20 06:28N 47°38' W 122°20'0 0.0
2016-Sep-20 02:30N 47°38' W 122°20'3 0.9
2016-Sep-19 23:34N 47°40' W 122°23'5 1.3
2016-Sep-19 19:33N 47°35' W 122°27'10 9.9
2016-Sep-19 18:33N 47°26' W 122°32'  

Dump ship's entire track history